Bluffs, Illinois
Current Conditions -  °F | °C
As of 5:35 PM on Wednesday 22 Oct 2014 (Local Time) from KPPQ Reporting Station
Clear Clear  
Wind Chill: 61°   Ceiling: Unl
Heat Index: 61°   Visibility: 10mi
Dew Point: 41°   Wind: 6mph
Humidity: 48%   Direction: 120°ESE
Pressure: 30.2"   Gusts: NA
Location:  39.75°N, 90.54°W
Report Text: KPPQ 222235Z AUTO 12005KT 10SM CLR 16/05 A3020 RMK AO2 T01630052
Loading
Personal Weather Stations






























Interactive Weather Map New forecast layout! Learn more

10-Day Weather Forecast

Advertisements
Track Severe Weather on mobile